sensor_id;sensor_type;location;lat;lon;timestamp;temperature;humidity
76857;DHT22;66179;44.686;37.628;2023-04-24T00:01:54;10.55;86.16
76857;DHT22;66179;44.686;37.628;2023-04-24T00:04:21;10.62;85.69
76857;DHT22;66179;44.686;37.628;2023-04-24T00:06:48;10.74;85.22
76857;DHT22;66179;44.686;37.628;2023-04-24T00:09:20;10.74;84.60
76857;DHT22;66179;44.686;37.628;2023-04-24T00:11:46;10.82;83.79
76857;DHT22;66179;44.686;37.628;2023-04-24T00:14:13;10.88;83.51
76857;DHT22;66179;44.686;37.628;2023-04-24T00:16:39;10.88;83.52
76857;DHT22;66179;44.686;37.628;2023-04-24T00:19:06;10.89;83.33
76857;DHT22;66179;44.686;37.628;2023-04-24T00:24:16;11.04;81.27
76857;DHT22;66179;44.686;37.628;2023-04-24T00:26:43;11.13;79.91
76857;DHT22;66179;44.686;37.628;2023-04-24T00:29:10;11.13;79.94
76857;DHT22;66179;44.686;37.628;2023-04-24T00:31:36;11.16;79.21
76857;DHT22;66179;44.686;37.628;2023-04-24T00:34:04;11.16;78.90
76857;DHT22;66179;44.686;37.628;2023-04-24T00:36:31;11.16;78.86
76857;DHT22;66179;44.686;37.628;2023-04-24T00:38:58;11.16;77.95
76857;DHT22;66179;44.686;37.628;2023-04-24T00:41:25;11.15;77.96
76857;DHT22;66179;44.686;37.628;2023-04-24T00:43:52;11.13;78.06
76857;DHT22;66179;44.686;37.628;2023-04-24T00:46:20;11.18;77.60
76857;DHT22;66179;44.686;37.628;2023-04-24T00:48:47;11.18;77.68
76857;DHT22;66179;44.686;37.628;2023-04-24T00:51:14;11.16;77.56
76857;DHT22;66179;44.686;37.628;2023-04-24T00:53:41;11.15;77.63
76857;DHT22;66179;44.686;37.628;2023-04-24T00:56:08;11.14;77.60
76857;DHT22;66179;44.686;37.628;2023-04-24T00:58:35;11.17;76.82
76857;DHT22;66179;44.686;37.628;2023-04-24T01:01:02;11.18;77.66
76857;DHT22;66179;44.686;37.628;2023-04-24T01:03:30;11.17;77.31
76857;DHT22;66179;44.686;37.628;2023-04-24T01:05:58;11.17;77.56
76857;DHT22;66179;44.686;37.628;2023-04-24T01:08:26;11.22;77.25
76857;DHT22;66179;44.686;37.628;2023-04-24T01:10:55;11.24;77.22
76857;DHT22;66179;44.686;37.628;2023-04-24T01:13:23;11.26;76.94
76857;DHT22;66179;44.686;37.628;2023-04-24T01:15:50;11.28;76.64
76857;DHT22;66179;44.686;37.628;2023-04-24T01:18:17;11.30;77.33
76857;DHT22;66179;44.686;37.628;2023-04-24T01:20:44;11.31;76.18
76857;DHT22;66179;44.686;37.628;2023-04-24T01:23:13;11.32;76.04
76857;DHT22;66179;44.686;37.628;2023-04-24T01:25:40;11.38;75.96
76857;DHT22;66179;44.686;37.628;2023-04-24T01:28:07;11.39;75.37
76857;DHT22;66179;44.686;37.628;2023-04-24T01:30:34;11.44;75.41
76857;DHT22;66179;44.686;37.628;2023-04-24T01:33:01;11.44;76.04
76857;DHT22;66179;44.686;37.628;2023-04-24T01:35:29;11.33;76.95
76857;DHT22;66179;44.686;37.628;2023-04-24T01:37:56;11.23;77.05
76857;DHT22;66179;44.686;37.628;2023-04-24T01:40:23;11.25;76.95
76857;DHT22;66179;44.686;37.628;2023-04-24T01:42:50;11.16;77.50
76857;DHT22;66179;44.686;37.628;2023-04-24T01:45:17;11.18;76.98
76857;DHT22;66179;44.686;37.628;2023-04-24T01:47:45;11.18;77.84
76857;DHT22;66179;44.686;37.628;2023-04-24T01:50:12;11.04;78.35
76857;DHT22;66179;44.686;37.628;2023-04-24T01:52:39;11.01;78.12
76857;DHT22;66179;44.686;37.628;2023-04-24T01:55:07;11.05;77.69
76857;DHT22;66179;44.686;37.628;2023-04-24T01:57:35;11.12;78.18
76857;DHT22;66179;44.686;37.628;2023-04-24T02:00:03;11.03;78.30
76857;DHT22;66179;44.686;37.628;2023-04-24T02:02:40;10.96;78.47
76857;DHT22;66179;44.686;37.628;2023-04-24T02:05:08;10.98;78.43
76857;DHT22;66179;44.686;37.628;2023-04-24T02:07:37;10.97;78.78
76857;DHT22;66179;44.686;37.628;2023-04-24T02:10:04;10.95;79.36
76857;DHT22;66179;44.686;37.628;2023-04-24T02:12:32;10.94;79.37
76857;DHT22;66179;44.686;37.628;2023-04-24T02:15:00;10.89;79.70
76857;DHT22;66179;44.686;37.628;2023-04-24T02:17:28;10.88;79.78
76857;DHT22;66179;44.686;37.628;2023-04-24T02:19:54;10.88;79.93
76857;DHT22;66179;44.686;37.628;2023-04-24T02:22:21;10.89;80.12
76857;DHT22;66179;44.686;37.628;2023-04-24T02:24:48;10.86;80.63
76857;DHT22;66179;44.686;37.628;2023-04-24T02:27:16;10.85;80.54
76857;DHT22;66179;44.686;37.628;2023-04-24T02:29:42;10.87;80.74
76857;DHT22;66179;44.686;37.628;2023-04-24T02:32:09;10.88;81.22
76857;DHT22;66179;44.686;37.628;2023-04-24T02:34:38;10.93;81.68
76857;DHT22;66179;44.686;37.628;2023-04-24T02:37:05;10.95;80.79
76857;DHT22;66179;44.686;37.628;2023-04-24T02:39:32;10.92;81.34
76857;DHT22;66179;44.686;37.628;2023-04-24T02:41:59;10.90;81.89
76857;DHT22;66179;44.686;37.628;2023-04-24T02:44:26;10.94;81.80
76857;DHT22;66179;44.686;37.628;2023-04-24T02:46:53;10.97;82.18
76857;DHT22;66179;44.686;37.628;2023-04-24T02:49:20;11.00;82.46
76857;DHT22;66179;44.686;37.628;2023-04-24T02:51:47;11.08;82.21
76857;DHT22;66179;44.686;37.628;2023-04-24T02:54:14;11.13;81.93
76857;DHT22;66179;44.686;37.628;2023-04-24T02:56:40;11.16;82.51
76857;DHT22;66179;44.686;37.628;2023-04-24T02:59:08;11.16;82.27
76857;DHT22;66179;44.686;37.628;2023-04-24T03:01:36;11.19;82.65
76857;DHT22;66179;44.686;37.628;2023-04-24T03:04:03;11.26;82.33
76857;DHT22;66179;44.686;37.628;2023-04-24T03:06:30;11.36;82.01
76857;DHT22;66179;44.686;37.628;2023-04-24T03:09:00;11.47;82.60
76857;DHT22;66179;44.686;37.628;2023-04-24T03:11:26;11.55;82.60
76857;DHT22;66179;44.686;37.628;2023-04-24T03:13:53;11.59;81.95
76857;DHT22;66179;44.686;37.628;2023-04-24T03:16:20;11.61;81.36
76857;DHT22;66179;44.686;37.628;2023-04-24T03:18:47;11.69;81.83
76857;DHT22;66179;44.686;37.628;2023-04-24T03:21:15;11.78;82.02
76857;DHT22;66179;44.686;37.628;2023-04-24T03:23:45;11.83;81.28
76857;DHT22;66179;44.686;37.628;2023-04-24T03:26:12;11.88;81.07
76857;DHT22;66179;44.686;37.628;2023-04-24T03:28:46;11.90;80.78
76857;DHT22;66179;44.686;37.628;2023-04-24T03:31:13;11.92;81.65
76857;DHT22;66179;44.686;37.628;2023-04-24T03:33:42;11.97;81.33
76857;DHT22;66179;44.686;37.628;2023-04-24T03:36:09;12.00;81.49
76857;DHT22;66179;44.686;37.628;2023-04-24T03:38:40;12.07;81.36
76857;DHT22;66179;44.686;37.628;2023-04-24T03:41:26;12.14;81.17
76857;DHT22;66179;44.686;37.628;2023-04-24T03:44:03;12.20;81.62
76857;DHT22;66179;44.686;37.628;2023-04-24T03:46:31;12.27;81.88
76857;DHT22;66179;44.686;37.628;2023-04-24T03:49:00;12.36;82.07
76857;DHT22;66179;44.686;37.628;2023-04-24T03:51:31;12.48;81.31
76857;DHT22;66179;44.686;37.628;2023-04-24T03:54:09;12.62;81.27
76857;DHT22;66179;44.686;37.628;2023-04-24T03:56:38;12.67;80.36
76857;DHT22;66179;44.686;37.628;2023-04-24T03:59:05;12.70;80.45
76857;DHT22;66179;44.686;37.628;2023-04-24T04:01:34;12.73;79.87
76857;DHT22;66179;44.686;37.628;2023-04-24T04:04:11;12.80;81.06
76857;DHT22;66179;44.686;37.628;2023-04-24T04:06:39;12.86;80.56
76857;DHT22;66179;44.686;37.628;2023-04-24T04:09:07;12.88;80.26
76857;DHT22;66179;44.686;37.628;2023-04-24T04:11:36;12.90;80.48
76857;DHT22;66179;44.686;37.628;2023-04-24T04:14:03;12.94;79.43
76857;DHT22;66179;44.686;37.628;2023-04-24T04:16:30;13.01;80.62
76857;DHT22;66179;44.686;37.628;2023-04-24T04:19:02;13.09;79.79
76857;DHT22;66179;44.686;37.628;2023-04-24T04:21:30;13.18;79.46
76857;DHT22;66179;44.686;37.628;2023-04-24T04:24:08;13.19;79.30
76857;DHT22;66179;44.686;37.628;2023-04-24T04:26:42;13.20;80.14
76857;DHT22;66179;44.686;37.628;2023-04-24T04:29:13;13.23;79.40
76857;DHT22;66179;44.686;37.628;2023-04-24T04:31:43;13.30;79.16
76857;DHT22;66179;44.686;37.628;2023-04-24T04:34:13;13.37;78.99
76857;DHT22;66179;44.686;37.628;2023-04-24T04:36:41;13.41;79.17
76857;DHT22;66179;44.686;37.628;2023-04-24T04:39:47;13.52;78.51
76857;DHT22;66179;44.686;37.628;2023-04-24T04:42:24;13.60;77.87
76857;DHT22;66179;44.686;37.628;2023-04-24T04:44:51;13.64;77.22
76857;DHT22;66179;44.686;37.628;2023-04-24T04:47:23;13.71;76.56
76857;DHT22;66179;44.686;37.628;2023-04-24T04:49:51;13.78;76.82
76857;DHT22;66179;44.686;37.628;2023-04-24T04:52:24;13.82;76.05
76857;DHT22;66179;44.686;37.628;2023-04-24T04:54:57;13.89;76.60
76857;DHT22;66179;44.686;37.628;2023-04-24T04:57:30;13.89;77.28
76857;DHT22;66179;44.686;37.628;2023-04-24T04:59:57;13.85;76.53
76857;DHT22;66179;44.686;37.628;2023-04-24T05:02:37;13.89;76.43
76857;DHT22;66179;44.686;37.628;2023-04-24T05:05:05;13.91;76.99
76857;DHT22;66179;44.686;37.628;2023-04-24T05:07:32;13.90;75.89
76857;DHT22;66179;44.686;37.628;2023-04-24T05:09:59;13.90;77.21
76857;DHT22;66179;44.686;37.628;2023-04-24T05:12:26;13.89;76.28
76857;DHT22;66179;44.686;37.628;2023-04-24T05:14:53;13.91;75.54
76857;DHT22;66179;44.686;37.628;2023-04-24T05:17:20;13.93;76.82
76857;DHT22;66179;44.686;37.628;2023-04-24T05:19:46;13.96;77.94
76857;DHT22;66179;44.686;37.628;2023-04-24T05:22:15;14.00;76.82
76857;DHT22;66179;44.686;37.628;2023-04-24T05:24:49;13.99;76.27
76857;DHT22;66179;44.686;37.628;2023-04-24T05:27:34;14.01;77.31
76857;DHT22;66179;44.686;37.628;2023-04-24T05:30:04;14.07;76.45
76857;DHT22;66179;44.686;37.628;2023-04-24T05:32:30;14.12;75.50
76857;DHT22;66179;44.686;37.628;2023-04-24T05:34:57;14.17;76.65
76857;DHT22;66179;44.686;37.628;2023-04-24T05:37:25;14.19;76.71
76857;DHT22;66179;44.686;37.628;2023-04-24T05:39:52;14.22;78.01
76857;DHT22;66179;44.686;37.628;2023-04-24T05:42:19;14.23;77.24
76857;DHT22;66179;44.686;37.628;2023-04-24T05:44:45;14.28;77.56
76857;DHT22;66179;44.686;37.628;2023-04-24T05:47:12;14.32;76.49
76857;DHT22;66179;44.686;37.628;2023-04-24T05:49:40;14.34;76.83
76857;DHT22;66179;44.686;37.628;2023-04-24T05:52:07;14.37;76.64
76857;DHT22;66179;44.686;37.628;2023-04-24T05:54:36;14.43;76.45
76857;DHT22;66179;44.686;37.628;2023-04-24T05:57:03;14.48;76.51
76857;DHT22;66179;44.686;37.628;2023-04-24T05:59:48;14.50;76.53
76857;DHT22;66179;44.686;37.628;2023-04-24T06:02:15;14.54;76.79
76857;DHT22;66179;44.686;37.628;2023-04-24T06:04:42;14.55;76.08
76857;DHT22;66179;44.686;37.628;2023-04-24T06:07:11;14.59;76.74
76857;DHT22;66179;44.686;37.628;2023-04-24T06:09:38;14.60;76.18
76857;DHT22;66179;44.686;37.628;2023-04-24T06:12:06;14.64;75.94
76857;DHT22;66179;44.686;37.628;2023-04-24T06:14:54;14.66;76.12
76857;DHT22;66179;44.686;37.628;2023-04-24T06:17:27;14.69;76.20
76857;DHT22;66179;44.686;37.628;2023-04-24T06:19:54;14.68;75.07
76857;DHT22;66179;44.686;37.628;2023-04-24T06:22:23;14.72;74.95
76857;DHT22;66179;44.686;37.628;2023-04-24T06:24:49;14.77;75.96
76857;DHT22;66179;44.686;37.628;2023-04-24T06:27:17;14.81;75.23
76857;DHT22;66179;44.686;37.628;2023-04-24T06:29:44;14.86;75.80
76857;DHT22;66179;44.686;37.628;2023-04-24T06:32:11;14.86;74.73
76857;DHT22;66179;44.686;37.628;2023-04-24T06:34:38;14.91;75.14
76857;DHT22;66179;44.686;37.628;2023-04-24T06:37:05;14.93;75.24
76857;DHT22;66179;44.686;37.628;2023-04-24T06:39:32;14.96;75.17
76857;DHT22;66179;44.686;37.628;2023-04-24T06:42:00;14.94;75.58
76857;DHT22;66179;44.686;37.628;2023-04-24T06:44:26;14.95;74.31
76857;DHT22;66179;44.686;37.628;2023-04-24T06:46:53;14.96;75.38
76857;DHT22;66179;44.686;37.628;2023-04-24T06:49:20;15.00;75.09
76857;DHT22;66179;44.686;37.628;2023-04-24T06:51:47;15.01;76.41
76857;DHT22;66179;44.686;37.628;2023-04-24T06:54:14;15.03;76.79
76857;DHT22;66179;44.686;37.628;2023-04-24T06:56:41;15.09;77.69
76857;DHT22;66179;44.686;37.628;2023-04-24T06:59:08;15.09;77.75
76857;DHT22;66179;44.686;37.628;2023-04-24T07:01:34;15.02;76.72
76857;DHT22;66179;44.686;37.628;2023-04-24T07:04:01;14.92;77.13
76857;DHT22;66179;44.686;37.628;2023-04-24T07:06:28;14.86;77.69
76857;DHT22;66179;44.686;37.628;2023-04-24T07:08:58;14.83;78.75
76857;DHT22;66179;44.686;37.628;2023-04-24T07:11:26;14.69;79.37
76857;DHT22;66179;44.686;37.628;2023-04-24T07:13:55;14.60;79.92
76857;DHT22;66179;44.686;37.628;2023-04-24T07:16:22;14.59;79.85
76857;DHT22;66179;44.686;37.628;2023-04-24T07:18:49;14.62;81.24
76857;DHT22;66179;44.686;37.628;2023-04-24T07:21:16;14.58;79.70
76857;DHT22;66179;44.686;37.628;2023-04-24T07:23:42;14.68;80.53
76857;DHT22;66179;44.686;37.628;2023-04-24T07:26:09;14.67;80.49
76857;DHT22;66179;44.686;37.628;2023-04-24T07:28:36;14.77;82.13
76857;DHT22;66179;44.686;37.628;2023-04-24T07:31:03;14.87;80.31
76857;DHT22;66179;44.686;37.628;2023-04-24T07:33:29;14.88;77.27
76857;DHT22;66179;44.686;37.628;2023-04-24T07:35:56;14.99;80.09
76857;DHT22;66179;44.686;37.628;2023-04-24T07:38:23;15.16;78.13
76857;DHT22;66179;44.686;37.628;2023-04-24T07:40:52;15.21;78.96
76857;DHT22;66179;44.686;37.628;2023-04-24T07:43:20;15.14;79.72
76857;DHT22;66179;44.686;37.628;2023-04-24T07:45:47;15.21;81.97
76857;DHT22;66179;44.686;37.628;2023-04-24T07:48:14;15.28;80.30
76857;DHT22;66179;44.686;37.628;2023-04-24T07:50:43;15.33;80.69
76857;DHT22;66179;44.686;37.628;2023-04-24T07:53:10;15.32;79.61
76857;DHT22;66179;44.686;37.628;2023-04-24T07:55:37;15.36;79.98
76857;DHT22;66179;44.686;37.628;2023-04-24T07:58:04;15.41;79.85
76857;DHT22;66179;44.686;37.628;2023-04-24T08:00:31;15.45;79.11
76857;DHT22;66179;44.686;37.628;2023-04-24T08:02:58;15.42;78.10
76857;DHT22;66179;44.686;37.628;2023-04-24T08:05:24;15.47;77.91
76857;DHT22;66179;44.686;37.628;2023-04-24T08:07:53;15.51;77.40
76857;DHT22;66179;44.686;37.628;2023-04-24T08:10:22;15.48;76.21
76857;DHT22;66179;44.686;37.628;2023-04-24T08:12:48;15.61;78.86
76857;DHT22;66179;44.686;37.628;2023-04-24T08:15:15;15.47;76.13
76857;DHT22;66179;44.686;37.628;2023-04-24T08:17:42;15.57;76.73
76857;DHT22;66179;44.686;37.628;2023-04-24T08:20:10;15.70;77.71
76857;DHT22;66179;44.686;37.628;2023-04-24T08:22:41;15.62;75.41
76857;DHT22;66179;44.686;37.628;2023-04-24T08:25:10;15.52;77.04
76857;DHT22;66179;44.686;37.628;2023-04-24T08:27:37;15.56;77.33
76857;DHT22;66179;44.686;37.628;2023-04-24T08:30:06;15.40;76.39
76857;DHT22;66179;44.686;37.628;2023-04-24T08:32:33;15.33;75.97
76857;DHT22;66179;44.686;37.628;2023-04-24T08:35:00;15.37;76.72
76857;DHT22;66179;44.686;37.628;2023-04-24T08:37:27;15.41;79.44
76857;DHT22;66179;44.686;37.628;2023-04-24T08:39:54;15.38;78.05
76857;DHT22;66179;44.686;37.628;2023-04-24T08:42:21;15.47;79.55
76857;DHT22;66179;44.686;37.628;2023-04-24T08:44:49;15.49;79.17
76857;DHT22;66179;44.686;37.628;2023-04-24T08:47:16;15.48;79.33
76857;DHT22;66179;44.686;37.628;2023-04-24T08:49:44;15.55;80.33
76857;DHT22;66179;44.686;37.628;2023-04-24T08:52:12;15.45;79.61
76857;DHT22;66179;44.686;37.628;2023-04-24T08:54:39;15.55;80.17
76857;DHT22;66179;44.686;37.628;2023-04-24T08:57:08;15.44;83.00
76857;DHT22;66179;44.686;37.628;2023-04-24T08:59:38;15.52;81.28
76857;DHT22;66179;44.686;37.628;2023-04-24T09:02:05;15.56;77.40
76857;DHT22;66179;44.686;37.628;2023-04-24T09:04:33;15.54;76.93
76857;DHT22;66179;44.686;37.628;2023-04-24T09:07:02;15.44;77.44
76857;DHT22;66179;44.686;37.628;2023-04-24T09:09:30;15.32;78.83
76857;DHT22;66179;44.686;37.628;2023-04-24T09:11:59;15.23;81.78
76857;DHT22;66179;44.686;37.628;2023-04-24T09:14:27;15.08;82.46
76857;DHT22;66179;44.686;37.628;2023-04-24T09:16:54;14.97;83.81
76857;DHT22;66179;44.686;37.628;2023-04-24T09:19:21;14.92;82.85
76857;DHT22;66179;44.686;37.628;2023-04-24T09:21:48;14.81;84.80
76857;DHT22;66179;44.686;37.628;2023-04-24T09:24:18;14.79;83.68
76857;DHT22;66179;44.686;37.628;2023-04-24T09:26:47;14.79;85.24
76857;DHT22;66179;44.686;37.628;2023-04-24T09:29:17;14.80;83.73
76857;DHT22;66179;44.686;37.628;2023-04-24T09:31:45;14.87;85.15
76857;DHT22;66179;44.686;37.628;2023-04-24T09:34:12;14.86;84.17
76857;DHT22;66179;44.686;37.628;2023-04-24T09:36:42;14.82;85.38
76857;DHT22;66179;44.686;37.628;2023-04-24T09:39:11;14.77;85.50
76857;DHT22;66179;44.686;37.628;2023-04-24T09:41:44;14.77;84.93
76857;DHT22;66179;44.686;37.628;2023-04-24T09:44:16;14.75;85.60
76857;DHT22;66179;44.686;37.628;2023-04-24T09:46:46;14.79;86.86
76857;DHT22;66179;44.686;37.628;2023-04-24T09:49:16;14.72;87.28
76857;DHT22;66179;44.686;37.628;2023-04-24T09:51:46;14.72;87.06
76857;DHT22;66179;44.686;37.628;2023-04-24T09:54:22;14.80;86.61
76857;DHT22;66179;44.686;37.628;2023-04-24T09:56:51;14.69;86.48
76857;DHT22;66179;44.686;37.628;2023-04-24T09:59:19;14.75;86.44
76857;DHT22;66179;44.686;37.628;2023-04-24T10:01:46;14.72;86.14
76857;DHT22;66179;44.686;37.628;2023-04-24T10:04:20;14.69;86.12
76857;DHT22;66179;44.686;37.628;2023-04-24T10:06:48;14.74;85.61
76857;DHT22;66179;44.686;37.628;2023-04-24T10:09:20;14.79;86.45
76857;DHT22;66179;44.686;37.628;2023-04-24T10:11:49;14.80;85.16
76857;DHT22;66179;44.686;37.628;2023-04-24T10:14:18;14.84;85.25
76857;DHT22;66179;44.686;37.628;2023-04-24T10:16:45;14.87;84.27
76857;DHT22;66179;44.686;37.628;2023-04-24T10:19:17;14.85;84.59
76857;DHT22;66179;44.686;37.628;2023-04-24T10:21:47;14.84;84.34
76857;DHT22;66179;44.686;37.628;2023-04-24T10:24:15;14.87;83.75
76857;DHT22;66179;44.686;37.628;2023-04-24T10:26:43;14.88;83.08
76857;DHT22;66179;44.686;37.628;2023-04-24T10:29:11;14.91;83.20
76857;DHT22;66179;44.686;37.628;2023-04-24T10:31:39;14.91;84.43
76857;DHT22;66179;44.686;37.628;2023-04-24T10:34:08;14.82;85.61
76857;DHT22;66179;44.686;37.628;2023-04-24T10:36:38;14.83;86.09
76857;DHT22;66179;44.686;37.628;2023-04-24T10:39:09;14.88;85.50
76857;DHT22;66179;44.686;37.628;2023-04-24T10:41:38;14.93;85.80
76857;DHT22;66179;44.686;37.628;2023-04-24T10:44:12;14.98;85.60
76857;DHT22;66179;44.686;37.628;2023-04-24T10:46:45;14.98;85.67
76857;DHT22;66179;44.686;37.628;2023-04-24T10:49:12;14.97;87.80
76857;DHT22;66179;44.686;37.628;2023-04-24T10:51:50;14.93;84.42
76857;DHT22;66179;44.686;37.628;2023-04-24T10:54:24;14.88;84.47
76857;DHT22;66179;44.686;37.628;2023-04-24T10:56:51;14.79;83.85
76857;DHT22;66179;44.686;37.628;2023-04-24T10:59:25;14.71;84.61
76857;DHT22;66179;44.686;37.628;2023-04-24T11:01:53;14.70;86.47
76857;DHT22;66179;44.686;37.628;2023-04-24T11:04:32;14.79;86.26
76857;DHT22;66179;44.686;37.628;2023-04-24T11:06:59;14.80;85.24
76857;DHT22;66179;44.686;37.628;2023-04-24T11:09:27;14.80;86.58
76857;DHT22;66179;44.686;37.628;2023-04-24T11:12:08;14.69;86.46
76857;DHT22;66179;44.686;37.628;2023-04-24T11:17:35;14.84;86.06
76857;DHT22;66179;44.686;37.628;2023-04-24T11:20:11;14.91;85.93
76857;DHT22;66179;44.686;37.628;2023-04-24T11:22:39;14.88;85.26
76857;DHT22;66179;44.686;37.628;2023-04-24T11:25:09;14.89;86.84
76857;DHT22;66179;44.686;37.628;2023-04-24T11:27:40;14.98;86.41
76857;DHT22;66179;44.686;37.628;2023-04-24T11:30:08;14.97;86.93
76857;DHT22;66179;44.686;37.628;2023-04-24T11:32:37;14.99;84.40
76857;DHT22;66179;44.686;37.628;2023-04-24T11:35:21;15.02;87.93
76857;DHT22;66179;44.686;37.628;2023-04-24T11:37:52;14.96;87.19
76857;DHT22;66179;44.686;37.628;2023-04-24T11:40:21;15.00;88.02
76857;DHT22;66179;44.686;37.628;2023-04-24T11:42:53;15.04;86.80
76857;DHT22;66179;44.686;37.628;2023-04-24T11:45:24;15.03;88.60
76857;DHT22;66179;44.686;37.628;2023-04-24T11:47:51;14.97;88.83
76857;DHT22;66179;44.686;37.628;2023-04-24T11:50:21;15.02;88.93
76857;DHT22;66179;44.686;37.628;2023-04-24T11:52:49;15.02;87.50
76857;DHT22;66179;44.686;37.628;2023-04-24T11:57:46;15.13;87.19
76857;DHT22;66179;44.686;37.628;2023-04-24T12:02:44;15.07;85.49
76857;DHT22;66179;44.686;37.628;2023-04-24T12:05:25;15.19;86.25
76857;DHT22;66179;44.686;37.628;2023-04-24T12:07:52;15.24;86.46
76857;DHT22;66179;44.686;37.628;2023-04-24T12:10:21;15.30;87.09
76857;DHT22;66179;44.686;37.628;2023-04-24T12:12:48;15.25;87.60
76857;DHT22;66179;44.686;37.628;2023-04-24T12:15:18;15.21;87.84
76857;DHT22;66179;44.686;37.628;2023-04-24T12:17:45;15.33;89.54
76857;DHT22;66179;44.686;37.628;2023-04-24T12:20:13;15.36;85.40
76857;DHT22;66179;44.686;37.628;2023-04-24T12:22:48;15.39;86.86
76857;DHT22;66179;44.686;37.628;2023-04-24T12:25:17;15.44;88.73
76857;DHT22;66179;44.686;37.628;2023-04-24T12:28:08;15.54;86.34
76857;DHT22;66179;44.686;37.628;2023-04-24T12:30:46;15.57;86.29
76857;DHT22;66179;44.686;37.628;2023-04-24T12:33:19;15.67;83.23
76857;DHT22;66179;44.686;37.628;2023-04-24T12:35:50;15.76;83.96
76857;DHT22;66179;44.686;37.628;2023-04-24T12:38:22;15.76;85.91
76857;DHT22;66179;44.686;37.628;2023-04-24T12:41:06;15.78;84.65
76857;DHT22;66179;44.686;37.628;2023-04-24T12:43:33;15.72;86.01
76857;DHT22;66179;44.686;37.628;2023-04-24T12:45:59;15.74;84.38
76857;DHT22;66179;44.686;37.628;2023-04-24T12:48:27;15.78;85.09
76857;DHT22;66179;44.686;37.628;2023-04-24T12:50:54;15.77;85.59
76857;DHT22;66179;44.686;37.628;2023-04-24T12:53:22;15.76;85.77
76857;DHT22;66179;44.686;37.628;2023-04-24T12:55:49;15.76;85.45
76857;DHT22;66179;44.686;37.628;2023-04-24T12:58:19;15.77;86.09
76857;DHT22;66179;44.686;37.628;2023-04-24T13:00:47;15.62;86.58
76857;DHT22;66179;44.686;37.628;2023-04-24T13:03:14;15.56;85.13
76857;DHT22;66179;44.686;37.628;2023-04-24T13:05:42;15.59;86.48
76857;DHT22;66179;44.686;37.628;2023-04-24T13:08:09;15.58;86.61
76857;DHT22;66179;44.686;37.628;2023-04-24T13:10:36;15.60;86.45
76857;DHT22;66179;44.686;37.628;2023-04-24T13:13:03;15.46;87.44
76857;DHT22;66179;44.686;37.628;2023-04-24T13:15:29;15.21;87.32
76857;DHT22;66179;44.686;37.628;2023-04-24T13:17:56;15.07;89.57
76857;DHT22;66179;44.686;37.628;2023-04-24T13:20:23;14.95;90.01
76857;DHT22;66179;44.686;37.628;2023-04-24T13:22:49;14.82;89.83
76857;DHT22;66179;44.686;37.628;2023-04-24T13:25:16;14.78;90.08
76857;DHT22;66179;44.686;37.628;2023-04-24T13:27:44;14.69;90.32
76857;DHT22;66179;44.686;37.628;2023-04-24T13:30:10;14.65;90.17
76857;DHT22;66179;44.686;37.628;2023-04-24T13:32:37;14.67;89.62
76857;DHT22;66179;44.686;37.628;2023-04-24T13:35:04;14.63;89.95
76857;DHT22;66179;44.686;37.628;2023-04-24T13:37:32;14.55;90.81
76857;DHT22;66179;44.686;37.628;2023-04-24T13:39:58;14.53;89.75
76857;DHT22;66179;44.686;37.628;2023-04-24T13:42:25;14.36;90.87
76857;DHT22;66179;44.686;37.628;2023-04-24T13:44:51;14.28;91.37
76857;DHT22;66179;44.686;37.628;2023-04-24T13:47:18;14.27;92.79
76857;DHT22;66179;44.686;37.628;2023-04-24T13:49:45;14.29;92.88
76857;DHT22;66179;44.686;37.628;2023-04-24T13:52:12;14.23;93.42
76857;DHT22;66179;44.686;37.628;2023-04-24T13:54:40;14.17;93.24
76857;DHT22;66179;44.686;37.628;2023-04-24T13:57:07;14.07;92.89
76857;DHT22;66179;44.686;37.628;2023-04-24T13:59:34;14.04;92.82
76857;DHT22;66179;44.686;37.628;2023-04-24T14:02:01;14.01;93.33
76857;DHT22;66179;44.686;37.628;2023-04-24T14:04:27;14.03;93.17
76857;DHT22;66179;44.686;37.628;2023-04-24T14:06:54;14.01;93.59
76857;DHT22;66179;44.686;37.628;2023-04-24T14:09:21;14.05;92.95
76857;DHT22;66179;44.686;37.628;2023-04-24T14:11:49;13.95;93.28
76857;DHT22;66179;44.686;37.628;2023-04-24T14:14:16;13.97;93.33
76857;DHT22;66179;44.686;37.628;2023-04-24T14:16:42;13.98;92.53
76857;DHT22;66179;44.686;37.628;2023-04-24T14:19:09;13.84;92.94
76857;DHT22;66179;44.686;37.628;2023-04-24T14:21:36;13.90;93.73
76857;DHT22;66179;44.686;37.628;2023-04-24T14:24:03;13.86;93.35
76857;DHT22;66179;44.686;37.628;2023-04-24T14:26:30;13.85;93.24
76857;DHT22;66179;44.686;37.628;2023-04-24T14:28:57;13.67;93.14
76857;DHT22;66179;44.686;37.628;2023-04-24T14:31:25;13.63;94.23
76857;DHT22;66179;44.686;37.628;2023-04-24T14:33:52;13.52;94.09
76857;DHT22;66179;44.686;37.628;2023-04-24T14:36:19;13.46;94.82
76857;DHT22;66179;44.686;37.628;2023-04-24T14:38:45;13.38;94.75
76857;DHT22;66179;44.686;37.628;2023-04-24T14:41:12;13.40;95.15
76857;DHT22;66179;44.686;37.628;2023-04-24T14:43:40;13.45;94.95
76857;DHT22;66179;44.686;37.628;2023-04-24T14:46:07;13.51;94.40
76857;DHT22;66179;44.686;37.628;2023-04-24T14:48:33;13.49;94.22
76857;DHT22;66179;44.686;37.628;2023-04-24T14:51:00;13.50;94.56
76857;DHT22;66179;44.686;37.628;2023-04-24T14:53:26;13.58;94.15
76857;DHT22;66179;44.686;37.628;2023-04-24T14:55:53;13.52;94.20
76857;DHT22;66179;44.686;37.628;2023-04-24T14:58:20;13.47;94.33
76857;DHT22;66179;44.686;37.628;2023-04-24T15:00:47;13.45;94.56
76857;DHT22;66179;44.686;37.628;2023-04-24T15:03:16;13.38;94.44
76857;DHT22;66179;44.686;37.628;2023-04-24T15:05:43;13.40;94.72
76857;DHT22;66179;44.686;37.628;2023-04-24T15:08:10;13.34;94.59
76857;DHT22;66179;44.686;37.628;2023-04-24T15:10:36;13.36;94.79
76857;DHT22;66179;44.686;37.628;2023-04-24T15:13:04;13.29;94.91
76857;DHT22;66179;44.686;37.628;2023-04-24T15:15:31;13.29;95.17
76857;DHT22;66179;44.686;37.628;2023-04-24T15:17:57;13.29;95.18
76857;DHT22;66179;44.686;37.628;2023-04-24T15:20:24;13.22;95.01
76857;DHT22;66179;44.686;37.628;2023-04-24T15:22:50;13.22;95.25
76857;DHT22;66179;44.686;37.628;2023-04-24T15:25:17;13.27;94.81
76857;DHT22;66179;44.686;37.628;2023-04-24T15:27:44;13.26;95.15
76857;DHT22;66179;44.686;37.628;2023-04-24T15:30:12;13.17;95.54
76857;DHT22;66179;44.686;37.628;2023-04-24T15:32:39;13.19;95.59
76857;DHT22;66179;44.686;37.628;2023-04-24T15:35:06;13.31;94.95